createdAt,value
2017-04-21T00:00:24.138Z,928.28
2017-04-21T00:00:52.376Z,928.29
2017-04-21T00:01:20.599Z,928.28
2017-04-21T00:01:48.802Z,928.29
2017-04-21T00:02:17.052Z,928.28
2017-04-21T00:02:45.225Z,928.26
2017-04-21T00:03:13.245Z,928.28
2017-04-21T00:03:41.499Z,928.28
2017-04-21T00:04:09.734Z,928.28
2017-04-21T00:04:37.991Z,928.28
2017-04-21T00:05:06.187Z,928.27
2017-04-21T00:05:34.470Z,928.28
2017-04-21T00:06:02.668Z,928.26
2017-04-21T00:06:30.872Z,928.26
2017-04-21T00:06:59.055Z,928.31
2017-04-21T00:07:27.171Z,928.27
2017-04-21T00:07:55.387Z,928.33
2017-04-21T00:08:23.659Z,928.28
2017-04-21T00:08:51.720Z,928.29
2017-04-21T00:09:19.923Z,928.31
2017-04-21T00:09:48.167Z,928.31
2017-04-21T00:10:16.401Z,928.31
2017-04-21T00:10:44.781Z,928.34
2017-04-21T00:11:12.999Z,928.34
2017-04-21T00:11:41.105Z,928.33
2017-04-21T00:12:09.243Z,928.32
2017-04-21T00:12:37.342Z,928.31
2017-04-21T00:13:05.529Z,928.32
2017-04-21T00:13:33.591Z,928.39
2017-04-21T00:14:01.632Z,928.35
2017-04-21T00:14:29.893Z,928.36
2017-04-21T00:14:58.063Z,928.35
2017-04-21T00:15:26.289Z,928.34
2017-04-21T00:15:54.453Z,928.34
2017-04-21T00:16:22.540Z,928.34
2017-04-21T00:16:50.778Z,928.3
2017-04-21T00:17:18.838Z,928.36
2017-04-21T00:17:47.159Z,928.31
2017-04-21T00:18:15.353Z,928.33
2017-04-21T00:18:43.584Z,928.36
2017-04-21T00:19:11.746Z,928.35
2017-04-21T00:19:39.823Z,928.36
2017-04-21T00:20:07.998Z,928.35
2017-04-21T00:20:36.161Z,928.34
2017-04-21T00:21:04.326Z,928.35
2017-04-21T00:21:32.511Z,928.37
2017-04-21T00:22:00.643Z,928.38
2017-04-21T00:22:28.802Z,928.36
2017-04-21T00:22:56.871Z,928.34
2017-04-21T00:23:25.118Z,928.35
2017-04-21T00:23:53.402Z,928.38
2017-04-21T00:24:21.598Z,928.36
2017-04-21T00:24:49.735Z,928.34
2017-04-21T00:25:17.912Z,928.35
2017-04-21T00:25:46.066Z,928.34
2017-04-21T00:26:14.241Z,928.36
2017-04-21T00:26:42.452Z,928.31
2017-04-21T00:27:10.657Z,928.35
2017-04-21T00:27:38.774Z,928.35
2017-04-21T00:28:06.837Z,928.35
2017-04-21T00:28:35.099Z,928.33
2017-04-21T00:29:03.310Z,928.35
2017-04-21T00:29:31.521Z,928.37
2017-04-21T00:29:59.567Z,928.39
2017-04-21T00:30:27.814Z,928.36
2017-04-21T00:30:55.994Z,928.4
2017-04-21T00:31:23.937Z,928.39
2017-04-21T00:31:52.115Z,928.38
2017-04-21T00:32:20.334Z,928.39
2017-04-21T00:32:48.614Z,928.4
2017-04-21T00:33:16.835Z,928.35
2017-04-21T00:33:45.150Z,928.38
2017-04-21T00:34:13.402Z,928.39
2017-04-21T00:34:41.734Z,928.35
2017-04-21T00:35:09.978Z,928.34
2017-04-21T00:35:38.142Z,928.31
2017-04-21T00:36:06.331Z,928.34
2017-04-21T00:36:34.580Z,928.33
2017-04-21T00:37:02.714Z,928.34
2017-04-21T00:37:30.959Z,928.33
2017-04-21T00:37:59.117Z,928.36
2017-04-21T00:38:27.396Z,928.33
2017-04-21T00:38:55.610Z,928.33
2017-04-21T00:39:23.876Z,928.31
2017-04-21T00:39:51.975Z,928.32
2017-04-21T00:40:19.911Z,928.3
2017-04-21T00:40:48.038Z,928.28
2017-04-21T00:41:16.179Z,928.29
2017-04-21T00:41:44.446Z,928.28
2017-04-21T00:42:13.017Z,928.3
2017-04-21T00:42:41.144Z,928.2
2017-04-21T00:43:09.362Z,928.23
2017-04-21T00:43:37.673Z,928.19
2017-04-21T00:44:05.778Z,928.15
2017-04-21T00:44:33.788Z,928.16
2017-04-21T00:45:02.094Z,928.16
2017-04-21T00:45:30.242Z,928.18
2017-04-21T00:45:58.444Z,928.12
2017-04-21T00:46:26.733Z,928.15
2017-04-21T00:46:54.963Z,928.15
2017-04-21T00:47:23.197Z,928.12
2017-04-21T00:47:51.332Z,928.15
2017-04-21T00:48:19.546Z,928.15
2017-04-21T00:48:47.739Z,928.16
2017-04-21T00:49:15.730Z,928.19
2017-04-21T00:49:43.974Z,928.16
2017-04-21T00:50:12.153Z,928.17
2017-04-21T00:50:40.227Z,928.16
2017-04-21T00:51:08.585Z,928.18
2017-04-21T00:51:36.832Z,928.2
2017-04-21T00:52:04.961Z,928.16
2017-04-21T00:52:33.087Z,928.16
2017-04-21T00:53:01.253Z,928.12
2017-04-21T00:53:29.480Z,928.12
2017-04-21T00:53:57.719Z,928.16
2017-04-21T00:54:25.970Z,928.13
2017-04-21T00:54:54.037Z,928.06
2017-04-21T00:55:22.258Z,928.12
2017-04-21T00:55:50.301Z,928.12
2017-04-21T00:56:18.668Z,928.13
2017-04-21T00:56:46.946Z,928.12
2017-04-21T00:57:15.106Z,928.13
2017-04-21T00:57:43.401Z,928.11
2017-04-21T00:58:11.578Z,928.11
2017-04-21T00:58:39.573Z,928.11
2017-04-21T00:59:07.871Z,928.14
2017-04-21T00:59:35.848Z,928.12
2017-04-21T01:00:03.927Z,928.12
2017-04-21T01:00:32.149Z,928.14
2017-04-21T01:01:00.469Z,928.14
2017-04-21T01:01:28.641Z,928.09
2017-04-21T01:01:56.987Z,928.09
2017-04-21T01:02:25.194Z,928.12
2017-04-21T01:02:53.416Z,928.12
2017-04-21T01:03:21.553Z,928.13
2017-04-21T01:03:49.800Z,928.1
2017-04-21T01:04:18.050Z,928.11
2017-04-21T01:04:46.237Z,928.07
2017-04-21T01:05:14.481Z,928.09
2017-04-21T01:05:42.895Z,928.09
2017-04-21T01:06:11.018Z,928.1
2017-04-21T01:06:39.273Z,928.12
2017-04-21T01:07:07.406Z,928.11
2017-04-21T01:07:35.661Z,928.1
2017-04-21T01:08:03.830Z,928.11
2017-04-21T01:08:31.990Z,928.11
2017-04-21T01:09:00.220Z,928.1
2017-04-21T01:09:28.406Z,928.14
2017-04-21T01:09:56.683Z,928.11
2017-04-21T01:10:24.874Z,928.13
2017-04-21T01:10:53.109Z,928.12
2017-04-21T01:11:21.239Z,928.12
2017-04-21T01:11:49.405Z,928.08
2017-04-21T01:12:17.658Z,928.1
2017-04-21T01:12:45.619Z,928.15
2017-04-21T01:13:13.793Z,928.14
2017-04-21T01:13:41.962Z,928.17
2017-04-21T01:14:09.924Z,928.14
2017-04-21T01:14:38.155Z,928.15
2017-04-21T01:15:06.277Z,928.19
2017-04-21T01:15:34.428Z,928.17
2017-04-21T01:16:02.584Z,928.18
2017-04-21T01:16:30.790Z,928.18
2017-04-21T01:16:58.835Z,928.17
2017-04-21T01:17:26.976Z,928.18
2017-04-21T01:17:55.208Z,928.19
2017-04-21T01:18:23.336Z,928.11
2017-04-21T01:18:51.471Z,928.2
2017-04-21T01:19:19.637Z,928.17
2017-04-21T01:19:47.866Z,928.11
2017-04-21T01:20:16.029Z,928.14
2017-04-21T01:20:44.082Z,928.12
2017-04-21T01:21:12.404Z,928.14
2017-04-21T01:21:40.509Z,928.16
2017-04-21T01:22:08.658Z,928.14
2017-04-21T01:22:36.823Z,928.16
2017-04-21T01:23:05.079Z,928.15
2017-04-21T01:23:33.305Z,928.16
2017-04-21T01:24:01.507Z,928.18
2017-04-21T01:24:29.613Z,928.18
2017-04-21T01:24:57.893Z,928.19
2017-04-21T01:25:26.064Z,928.2
2017-04-21T01:25:54.294Z,928.21
2017-04-21T01:26:22.565Z,928.23
2017-04-21T01:26:50.751Z,928.18
2017-04-21T01:27:18.686Z,928.17
2017-04-21T01:27:46.799Z,928.12
2017-04-21T01:28:14.951Z,928.16
2017-04-21T01:28:43.095Z,928.17
2017-04-21T01:29:11.511Z,928.12
2017-04-21T01:29:39.577Z,928.12
2017-04-21T01:30:07.757Z,928.14
2017-04-21T01:30:35.991Z,928.12
2017-04-21T01:31:04.311Z,928.1
2017-04-21T01:31:32.583Z,928.13
2017-04-21T01:32:00.607Z,928.1
2017-04-21T01:32:28.764Z,928.13
2017-04-21T01:32:57.019Z,928.14
2017-04-21T01:33:25.203Z,928.14
2017-04-21T01:33:53.485Z,928.09
2017-04-21T01:34:21.613Z,928.12
2017-04-21T01:34:49.843Z,928.11
2017-04-21T01:35:17.983Z,928.08
2017-04-21T01:35:46.233Z,928.12
2017-04-21T01:36:14.467Z,928.07
2017-04-21T01:36:42.607Z,928.09
2017-04-21T01:37:11.033Z,928.11
2017-04-21T01:37:39.253Z,928.11
2017-04-21T01:38:07.498Z,928.11
2017-04-21T01:38:35.770Z,928.1
2017-04-21T01:39:04.333Z,928.07
2017-04-21T01:39:32.561Z,928.08
2017-04-21T01:40:00.675Z,928.1
2017-04-21T01:40:28.938Z,928.13
2017-04-21T01:40:56.942Z,928.19
2017-04-21T01:41:25.138Z,928.15
2017-04-21T01:41:53.368Z,928.17
2017-04-21T01:42:21.409Z,928.14
2017-04-21T01:42:49.584Z,928.14
2017-04-21T01:43:17.732Z,928.17
2017-04-21T01:43:45.712Z,928.19
2017-04-21T01:44:13.933Z,928.19
2017-04-21T01:44:42.175Z,928.23
2017-04-21T01:45:10.433Z,928.22
2017-04-21T01:45:38.608Z,928.26
2017-04-21T01:46:06.741Z,928.21
2017-04-21T01:46:34.805Z,928.22
2017-04-21T01:47:02.841Z,928.25
2017-04-21T01:47:31.098Z,928.24
2017-04-21T01:47:59.350Z,928.24
2017-04-21T01:48:27.645Z,928.25
2017-04-21T01:48:55.752Z,928.26
2017-04-21T01:49:24.087Z,928.32
2017-04-21T01:49:52.115Z,928.32
2017-04-21T01:50:20.227Z,928.29
2017-04-21T01:50:48.486Z,928.32
2017-04-21T01:51:16.643Z,928.29
2017-04-21T01:51:44.913Z,928.3
2017-04-21T01:52:13.063Z,928.34
2017-04-21T01:52:41.292Z,928.34
2017-04-21T01:53:09.545Z,928.32
2017-04-21T01:53:37.468Z,928.36
2017-04-21T01:54:05.739Z,928.32
2017-04-21T01:54:33.972Z,928.33
2017-04-21T01:55:02.023Z,928.31
2017-04-21T01:55:30.217Z,928.3
2017-04-21T01:55:58.356Z,928.3
2017-04-21T01:56:26.507Z,928.33
2017-04-21T01:56:54.762Z,928.28
2017-04-21T01:57:22.746Z,928.3
2017-04-21T01:57:51.013Z,928.26
2017-04-21T01:58:18.963Z,928.26
2017-04-21T01:58:47.227Z,928.26
2017-04-21T01:59:15.414Z,928.24
2017-04-21T01:59:43.721Z,928.2
2017-04-21T02:00:11.888Z,928.22
2017-04-21T02:00:40.087Z,928.19
2017-04-21T02:01:08.139Z,928.19
2017-04-21T02:01:36.274Z,928.19
2017-04-21T02:02:04.440Z,928.16
2017-04-21T02:02:32.636Z,928.15
2017-04-21T02:03:00.779Z,928.16
2017-04-21T02:03:28.914Z,928.17
2017-04-21T02:03:57.039Z,928.13
2017-04-21T02:04:25.335Z,928.16
2017-04-21T02:04:53.498Z,928.13
2017-04-21T02:05:21.701Z,928.12
2017-04-21T02:05:49.950Z,928.1
2017-04-21T02:06:18.075Z,928.12
2017-04-21T02:06:46.330Z,928.15
2017-04-21T02:07:14.942Z,928.13
2017-04-21T02:07:43.138Z,928.12
2017-04-21T02:08:11.297Z,928.13
2017-04-21T02:08:40.206Z,928.12
2017-04-21T02:09:08.478Z,928.11
2017-04-21T02:09:36.758Z,928.11
2017-04-21T02:10:05.004Z,928.11
2017-04-21T02:10:33.198Z,928.11
2017-04-21T02:11:01.379Z,928.08
2017-04-21T02:11:29.639Z,928.1
2017-04-21T02:11:57.784Z,928.16
2017-04-21T02:12:26.005Z,928.11
2017-04-21T02:12:54.236Z,928.11
2017-04-21T02:13:22.361Z,928.11
2017-04-21T02:13:50.635Z,928.1
2017-04-21T02:14:18.775Z,928.11
2017-04-21T02:14:46.955Z,928.13
2017-04-21T02:15:15.106Z,928.11
2017-04-21T02:15:43.268Z,928.12
2017-04-21T02:16:11.528Z,928.13
2017-04-21T02:16:39.716Z,928.11
2017-04-21T02:17:07.893Z,928.11
2017-04-21T02:17:36.087Z,928.1
2017-04-21T02:18:04.325Z,928.07
2017-04-21T02:18:32.313Z,928.09
2017-04-21T02:19:00.400Z,928.09
2017-04-21T02:19:28.539Z,928.06
2017-04-21T02:19:56.700Z,928.1
2017-04-21T02:20:25.005Z,928.08
2017-04-21T02:20:53.147Z,928.11
2017-04-21T02:21:21.316Z,928.07
2017-04-21T02:21:49.517Z,928.1
2017-04-21T02:22:17.475Z,928.12
2017-04-21T02:22:45.757Z,928.07
2017-04-21T02:23:13.786Z,928.09
2017-04-21T02:23:42.018Z,928.11
2017-04-21T02:24:10.196Z,928.13
2017-04-21T02:24:38.444Z,928.1
2017-04-21T02:25:06.587Z,928.09
2017-04-21T02:25:34.776Z,928.1
2017-04-21T02:26:02.895Z,928.06
2017-04-21T02:26:31.112Z,928.08
2017-04-21T02:26:59.312Z,928.08
2017-04-21T02:27:27.558Z,928.1
2017-04-21T02:27:55.677Z,928.08
2017-04-21T02:28:23.845Z,928.11
2017-04-21T02:28:52.106Z,928.12
2017-04-21T02:29:20.143Z,928.13
2017-04-21T02:29:48.162Z,928.14
2017-04-21T02:30:16.309Z,928.1
2017-04-21T02:30:44.293Z,928.14
2017-04-21T02:31:12.411Z,928.13
2017-04-21T02:31:40.618Z,928.15
2017-04-21T02:32:08.596Z,928.15
2017-04-21T02:32:36.836Z,928.16
2017-04-21T02:33:04.932Z,928.15
2017-04-21T02:33:33.158Z,928.13
2017-04-21T02:34:01.339Z,928.14
2017-04-21T02:34:29.567Z,928.15
2017-04-21T02:34:57.803Z,928.14
2017-04-21T02:35:26.074Z,928.12
2017-04-21T02:35:54.293Z,928.13
2017-04-21T02:36:22.455Z,928.12
2017-04-21T02:36:50.633Z,928.12
2017-04-21T02:37:18.787Z,928.11
2017-04-21T02:37:47.043Z,928.13
2017-04-21T02:38:15.325Z,928.11
2017-04-21T02:38:43.910Z,928.12
2017-04-21T02:39:12.073Z,928.1
2017-04-21T02:39:40.225Z,928.12
2017-04-21T02:40:08.415Z,928.11
2017-04-21T02:40:36.571Z,928.09
2017-04-21T02:41:04.724Z,928.12
2017-04-21T02:41:32.869Z,928.13
2017-04-21T02:42:00.903Z,928.11
2017-04-21T02:42:28.993Z,928.12
2017-04-21T02:42:57.006Z,928.11
2017-04-21T02:43:25.144Z,928.15
2017-04-21T02:43:53.269Z,928.12
2017-04-21T02:44:21.549Z,928.14
2017-04-21T02:44:49.890Z,928.18
2017-04-21T02:45:18.130Z,928.17
2017-04-21T02:45:46.304Z,928.19
2017-04-21T02:46:14.434Z,928.2
2017-04-21T02:46:42.727Z,928.19
2017-04-21T02:47:10.909Z,928.18
2017-04-21T02:47:39.177Z,928.19
2017-04-21T02:48:07.462Z,928.14
2017-04-21T02:48:35.691Z,928.16
2017-04-21T02:49:03.884Z,928.2
2017-04-21T02:49:32.166Z,928.2
2017-04-21T02:50:00.395Z,928.2
2017-04-21T02:50:28.622Z,928.2
2017-04-21T02:50:56.818Z,928.21
2017-04-21T02:51:24.893Z,928.2
2017-04-21T02:51:53.088Z,928.2
2017-04-21T02:52:21.277Z,928.21
2017-04-21T02:52:49.532Z,928.24
2017-04-21T02:53:17.677Z,928.28
2017-04-21T02:53:45.901Z,928.28
2017-04-21T02:54:14.154Z,928.3
2017-04-21T02:54:42.404Z,928.28
2017-04-21T02:55:10.589Z,928.29
2017-04-21T02:55:38.890Z,928.26
2017-04-21T02:56:07.237Z,928.25
2017-04-21T02:56:35.419Z,928.29
2017-04-21T02:57:03.359Z,928.24
2017-04-21T02:57:31.603Z,928.25
2017-04-21T02:57:59.683Z,928.24
2017-04-21T02:58:27.860Z,928.23
2017-04-21T02:58:55.910Z,928.24
2017-04-21T02:59:23.995Z,928.21
2017-04-21T02:59:52.307Z,928.23
2017-04-21T03:00:20.569Z,928.17
2017-04-21T03:00:48.702Z,928.2
2017-04-21T03:01:16.938Z,928.2
2017-04-21T03:01:45.189Z,928.18
2017-04-21T03:02:13.524Z,928.16
2017-04-21T03:02:41.702Z,928.16
2017-04-21T03:03:09.826Z,928.13
2017-04-21T03:03:38.067Z,928.12
2017-04-21T03:04:06.216Z,928.13
2017-04-21T03:04:34.337Z,928.12
2017-04-21T03:05:02.588Z,928.13
2017-04-21T03:05:30.749Z,928.1
2017-04-21T03:05:58.852Z,928.07
2017-04-21T03:06:26.923Z,928.09
2017-04-21T03:06:55.220Z,928.07
2017-04-21T03:07:23.430Z,928.08
2017-04-21T03:07:51.644Z,928.09
2017-04-21T03:08:19.894Z,928.11
2017-04-21T03:08:48.053Z,928.07
2017-04-21T03:09:16.339Z,928.07
2017-04-21T03:09:44.706Z,928.06
2017-04-21T03:10:12.905Z,928.07
2017-04-21T03:10:41.048Z,928.08
2017-04-21T03:11:09.181Z,928.07
2017-04-21T03:11:37.349Z,928.07
2017-04-21T03:12:05.634Z,928.13
2017-04-21T03:12:33.706Z,928.11
2017-04-21T03:13:01.692Z,928.13
2017-04-21T03:13:29.865Z,928.14
2017-04-21T03:13:58.113Z,928.12
2017-04-21T03:14:26.359Z,928.16
2017-04-21T03:14:54.755Z,928.14
2017-04-21T03:15:22.863Z,928.2
2017-04-21T03:15:50.994Z,928.17
2017-04-21T03:16:19.129Z,928.2
2017-04-21T03:16:47.390Z,928.16
2017-04-21T03:17:15.580Z,928.18
2017-04-21T03:17:43.597Z,928.19
2017-04-21T03:18:11.979Z,928.18
2017-04-21T03:18:40.242Z,928.19
2017-04-21T03:19:08.395Z,928.15
2017-04-21T03:19:36.575Z,928.19
2017-04-21T03:20:04.802Z,928.17
2017-04-21T03:20:32.967Z,928.22
2017-04-21T03:21:01.201Z,928.15
2017-04-21T03:21:29.233Z,928.19
2017-04-21T03:21:57.385Z,928.16
2017-04-21T03:22:25.419Z,928.16
2017-04-21T03:22:53.641Z,928.21
2017-04-21T03:23:21.962Z,928.26
2017-04-21T03:23:50.277Z,928.19
2017-04-21T03:24:18.529Z,928.22
2017-04-21T03:24:46.673Z,928.21
2017-04-21T03:25:15.073Z,928.19
2017-04-21T03:25:43.207Z,928.2
2017-04-21T03:26:11.478Z,928.19
2017-04-21T03:26:39.709Z,928.2
2017-04-21T03:27:07.992Z,928.2
2017-04-21T03:27:36.043Z,928.15
2017-04-21T03:28:04.248Z,928.2
2017-04-21T03:28:32.377Z,928.15
2017-04-21T03:29:00.359Z,928.2
2017-04-21T03:29:28.616Z,928.19
2017-04-21T03:29:56.779Z,928.18
2017-04-21T03:30:24.980Z,928.15
2017-04-21T03:30:53.002Z,928.16
2017-04-21T03:31:21.245Z,928.11
2017-04-21T03:31:49.299Z,928.16
2017-04-21T03:32:17.352Z,928.16
2017-04-21T03:32:45.493Z,928.14
2017-04-21T03:33:13.640Z,928.12
2017-04-21T03:33:41.894Z,928.13
2017-04-21T03:34:10.039Z,928.11
2017-04-21T03:34:38.272Z,928.16
2017-04-21T03:35:06.585Z,928.13
2017-04-21T03:35:34.752Z,928.12
2017-04-21T03:36:02.961Z,928.15
2017-04-21T03:36:31.233Z,928.12
2017-04-21T03:36:59.499Z,928.15
2017-04-21T03:37:27.763Z,928.13
2017-04-21T03:37:56.051Z,928.15
2017-04-21T03:38:24.289Z,928.11
2017-04-21T03:38:52.540Z,928.17
2017-04-21T03:39:20.598Z,928.09
2017-04-21T03:39:48.737Z,928.13
2017-04-21T03:40:17.062Z,928.16
2017-04-21T03:40:45.275Z,928.15
2017-04-21T03:41:13.406Z,928.12
2017-04-21T03:41:41.549Z,928.12
2017-04-21T03:42:09.738Z,928.13
2017-04-21T03:42:37.811Z,928.08
2017-04-21T03:43:06.050Z,928.04
2017-04-21T03:43:34.223Z,928.05
2017-04-21T03:44:02.461Z,928.04
2017-04-21T03:44:30.722Z,928.09
2017-04-21T03:44:58.874Z,928.06
2017-04-21T03:45:27.081Z,928.06
2017-04-21T03:45:55.174Z,928.06
2017-04-21T03:46:23.363Z,928.03
2017-04-21T03:46:51.502Z,928.04
2017-04-21T03:47:19.740Z,928.02
2017-04-21T03:47:47.790Z,928.04
2017-04-21T03:48:15.723Z,928.01
2017-04-21T03:48:43.906Z,927.96
2017-04-21T03:49:12.120Z,927.94
2017-04-21T03:49:40.235Z,927.99
2017-04-21T03:50:08.446Z,927.98
2017-04-21T03:50:36.580Z,927.98
2017-04-21T03:51:04.648Z,927.98
2017-04-21T03:51:32.935Z,927.97
2017-04-21T03:52:01.071Z,927.95
2017-04-21T03:52:29.160Z,928.01
2017-04-21T03:52:57.441Z,927.97
2017-04-21T03:53:25.569Z,927.99
2017-04-21T03:53:53.752Z,927.97
2017-04-21T03:54:21.883Z,927.97
2017-04-21T03:54:50.041Z,928
2017-04-21T03:55:18.387Z,927.98
2017-04-21T03:55:46.410Z,927.98
2017-04-21T03:56:14.551Z,927.98
2017-04-21T03:56:42.628Z,927.93
2017-04-21T03:57:10.867Z,927.92
2017-04-21T03:57:38.940Z,927.9
2017-04-21T03:58:07.178Z,927.92
2017-04-21T03:58:35.412Z,927.87
2017-04-21T03:59:03.561Z,927.88
2017-04-21T03:59:31.773Z,927.83
2017-04-21T04:00:00.093Z,927.83
2017-04-21T04:00:28.318Z,927.82
2017-04-21T04:00:56.588Z,927.87
2017-04-21T04:01:24.771Z,927.82
2017-04-21T04:01:52.893Z,927.84
2017-04-21T04:02:21.123Z,927.84
2017-04-21T04:02:49.098Z,927.82
2017-04-21T04:03:17.280Z,927.83
2017-04-21T04:03:45.394Z,927.82
2017-04-21T04:04:13.462Z,927.76
2017-04-21T04:04:41.621Z,927.76
2017-04-21T04:05:09.956Z,927.75
2017-04-21T04:05:38.060Z,927.77
2017-04-21T04:06:06.188Z,927.73
2017-04-21T04:06:34.471Z,927.75
2017-04-21T04:07:02.518Z,927.75
2017-04-21T04:07:30.766Z,927.74
2017-04-21T04:07:58.947Z,927.75
2017-04-21T04:08:27.113Z,927.75
2017-04-21T04:08:55.282Z,927.75
2017-04-21T04:09:23.603Z,927.77
2017-04-21T04:09:51.779Z,927.73
2017-04-21T04:10:20.084Z,927.76
2017-04-21T04:10:48.231Z,927.72
2017-04-21T04:11:16.366Z,927.72
2017-04-21T04:11:44.624Z,927.75
2017-04-21T04:12:12.793Z,927.73
2017-04-21T04:12:40.938Z,927.74
2017-04-21T04:13:09.121Z,927.73
2017-04-21T04:13:37.329Z,927.71
2017-04-21T04:14:05.514Z,927.72
2017-04-21T04:14:33.684Z,927.71
2017-04-21T04:15:01.912Z,927.72
2017-04-21T04:15:30.167Z,927.72
2017-04-21T04:15:58.323Z,927.69
2017-04-21T04:16:26.671Z,927.67
2017-04-21T04:16:54.866Z,927.61
2017-04-21T04:17:22.936Z,927.68
2017-04-21T04:17:51.158Z,927.67
2017-04-21T04:18:19.301Z,927.67
2017-04-21T04:18:47.505Z,927.65
2017-04-21T04:19:15.746Z,927.67
2017-04-21T04:19:43.718Z,927.64
2017-04-21T04:20:11.904Z,927.66
2017-04-21T04:20:40.100Z,927.66
2017-04-21T04:21:08.168Z,927.64
2017-04-21T04:21:36.386Z,927.61
2017-04-21T04:22:04.435Z,927.65
2017-04-21T04:22:32.760Z,927.65
2017-04-21T04:23:00.943Z,927.63
2017-04-21T04:23:29.116Z,927.6
2017-04-21T04:23:57.329Z,927.64
2017-04-21T04:24:25.599Z,927.63
2017-04-21T04:24:53.874Z,927.65
2017-04-21T04:25:21.999Z,927.64
2017-04-21T04:25:49.994Z,927.64
2017-04-21T04:26:18.253Z,927.62
2017-04-21T04:26:46.399Z,927.61
2017-04-21T04:27:14.664Z,927.59
2017-04-21T04:27:42.824Z,927.62
2017-04-21T04:28:11.012Z,927.58
2017-04-21T04:28:39.231Z,927.59
2017-04-21T04:29:07.392Z,927.58
2017-04-21T04:29:35.754Z,927.61
2017-04-21T04:30:03.810Z,927.61
2017-04-21T04:30:31.924Z,927.65
2017-04-21T04:31:00.044Z,927.6
2017-04-21T04:31:27.998Z,927.66
2017-04-21T04:31:56.276Z,927.64
2017-04-21T04:32:24.475Z,927.68
2017-04-21T04:32:52.989Z,927.68
2017-04-21T04:33:21.252Z,927.68
2017-04-21T04:33:49.478Z,927.66
2017-04-21T04:34:17.666Z,927.63
2017-04-21T04:34:45.979Z,927.66
2017-04-21T04:35:14.257Z,927.68
2017-04-21T04:35:42.398Z,927.67
2017-04-21T04:36:10.690Z,927.67
2017-04-21T04:36:38.952Z,927.67
2017-04-21T04:37:07.162Z,927.61
2017-04-21T04:37:35.298Z,927.61
2017-04-21T04:38:03.526Z,927.62
2017-04-21T04:38:31.682Z,927.61
2017-04-21T04:38:59.915Z,927.58
2017-04-21T04:39:28.102Z,927.57
2017-04-21T04:39:56.137Z,927.62
2017-04-21T04:40:24.439Z,927.66
2017-04-21T04:40:52.703Z,927.6
2017-04-21T04:41:20.926Z,927.65
2017-04-21T04:41:49.084Z,927.64
2017-04-21T04:42:17.248Z,927.62
2017-04-21T04:42:45.639Z,927.67
2017-04-21T04:43:13.616Z,927.67
2017-04-21T04:43:41.804Z,927.68
2017-04-21T04:44:10.020Z,927.66
2017-04-21T04:44:38.325Z,927.59
2017-04-21T04:45:06.566Z,927.65
2017-04-21T04:45:34.767Z,927.63
2017-04-21T04:46:03.012Z,927.59
2017-04-21T04:46:31.392Z,927.63
2017-04-21T04:46:59.612Z,927.64
2017-04-21T04:47:27.660Z,927.6
2017-04-21T04:47:55.973Z,927.54
2017-04-21T04:48:24.153Z,927.58
2017-04-21T04:48:52.415Z,927.62
2017-04-21T04:49:20.539Z,927.58
2017-04-21T04:49:48.738Z,927.55
2017-04-21T04:50:17.002Z,927.54
2017-04-21T04:50:44.992Z,927.55
2017-04-21T04:51:12.857Z,927.52
2017-04-21T04:51:41.028Z,927.54
2017-04-21T04:52:09.188Z,927.52
2017-04-21T04:52:37.496Z,927.5
2017-04-21T04:53:05.728Z,927.47
2017-04-21T04:53:33.921Z,927.49
2017-04-21T04:54:02.236Z,927.49
2017-04-21T04:54:30.442Z,927.49
2017-04-21T04:54:58.461Z,927.48
2017-04-21T04:55:26.698Z,927.51
2017-04-21T04:55:54.930Z,927.48
2017-04-21T04:56:23.275Z,927.49
2017-04-21T04:56:51.303Z,927.48
2017-04-21T04:57:19.547Z,927.49
2017-04-21T04:57:47.897Z,927.54
2017-04-21T04:58:16.034Z,927.54
2017-04-21T04:58:44.302Z,927.49
2017-04-21T04:59:12.549Z,927.55
2017-04-21T04:59:40.778Z,927.56
2017-04-21T05:00:08.793Z,927.52
2017-04-21T05:00:37.025Z,927.54
2017-04-21T05:01:05.348Z,927.58
2017-04-21T05:01:33.548Z,927.58
2017-04-21T05:02:01.674Z,927.61
2017-04-21T05:02:29.975Z,927.58
2017-04-21T05:02:58.504Z,927.59
2017-04-21T05:03:26.688Z,927.56
2017-04-21T05:03:54.965Z,927.57
2017-04-21T05:04:23.192Z,927.57
2017-04-21T05:04:51.428Z,927.59
2017-04-21T05:05:19.609Z,927.57
2017-04-21T05:05:47.927Z,927.6
2017-04-21T05:06:16.189Z,927.57
2017-04-21T05:06:44.364Z,927.57
2017-04-21T05:07:12.551Z,927.56
2017-04-21T05:07:40.737Z,927.54
2017-04-21T05:08:09.201Z,927.55
2017-04-21T05:08:37.445Z,927.5
2017-04-21T05:09:05.736Z,927.51
2017-04-21T05:09:33.900Z,927.54
2017-04-21T05:10:02.101Z,927.51
2017-04-21T05:10:30.394Z,927.54
2017-04-21T05:10:58.793Z,927.46
2017-04-21T05:11:26.962Z,927.49
2017-04-21T05:11:55.316Z,927.46
2017-04-21T05:12:23.689Z,927.47
2017-04-21T05:12:52.006Z,927.54
2017-04-21T05:13:20.285Z,927.51
2017-04-21T05:13:48.447Z,927.53
2017-04-21T05:14:16.646Z,927.52
2017-04-21T05:14:44.823Z,927.51
2017-04-21T05:15:13.104Z,927.54
2017-04-21T05:15:41.362Z,927.54
2017-04-21T05:16:09.689Z,927.51
2017-04-21T05:16:37.905Z,927.55
2017-04-21T05:17:06.223Z,927.58
2017-04-21T05:17:34.462Z,927.59
2017-04-21T05:18:02.699Z,927.55
2017-04-21T05:18:30.953Z,927.53
2017-04-21T05:18:59.150Z,927.55
2017-04-21T05:19:27.422Z,927.55
2017-04-21T05:19:55.485Z,927.55
2017-04-21T05:20:23.642Z,927.56
2017-04-21T05:20:51.639Z,927.57
2017-04-21T05:21:19.783Z,927.54
2017-04-21T05:21:47.956Z,927.56
2017-04-21T05:22:16.016Z,927.56
2017-04-21T05:22:44.350Z,927.55
2017-04-21T05:23:12.617Z,927.54
2017-04-21T05:23:40.859Z,927.56
2017-04-21T05:24:09.139Z,927.57
2017-04-21T05:24:37.178Z,927.58
2017-04-21T05:25:05.297Z,927.56
2017-04-21T05:25:33.564Z,927.56
2017-04-21T05:26:01.850Z,927.55
2017-04-21T05:26:30.361Z,927.57
2017-04-21T05:26:58.559Z,927.53
2017-04-21T05:27:26.848Z,927.53
2017-04-21T05:27:55.105Z,927.51
2017-04-21T05:28:23.358Z,927.53
2017-04-21T05:28:51.474Z,927.53
2017-04-21T05:29:19.540Z,927.48
2017-04-21T05:29:47.870Z,927.49
2017-04-21T05:30:16.083Z,927.49
2017-04-21T05:30:44.162Z,927.5
2017-04-21T05:31:12.307Z,927.44
2017-04-21T05:31:40.376Z,927.45
2017-04-21T05:32:08.655Z,927.49
2017-04-21T05:32:36.936Z,927.48
2017-04-21T05:33:05.201Z,927.46
2017-04-21T05:33:33.472Z,927.46
2017-04-21T05:34:01.739Z,927.43
2017-04-21T05:34:29.848Z,927.46
2017-04-21T05:34:58.117Z,927.47
2017-04-21T05:35:26.170Z,927.52
2017-04-21T05:35:54.480Z,927.49
2017-04-21T05:36:22.676Z,927.49
2017-04-21T05:36:50.834Z,927.49
2017-04-21T05:37:19.093Z,927.49
2017-04-21T05:37:47.397Z,927.48
2017-04-21T05:38:15.687Z,927.45
2017-04-21T05:38:44.008Z,927.45
2017-04-21T05:39:12.130Z,927.39
2017-04-21T05:39:40.207Z,927.43
2017-04-21T05:40:08.461Z,927.39
2017-04-21T05:40:36.702Z,927.4
2017-04-21T05:41:04.850Z,927.42
2017-04-21T05:41:33.105Z,927.38
2017-04-21T05:42:01.316Z,927.39
2017-04-21T05:42:29.422Z,927.43
2017-04-21T05:42:57.566Z,927.37
2017-04-21T05:43:25.871Z,927.37
2017-04-21T05:43:54.031Z,927.4
2017-04-21T05:44:22.181Z,927.43
2017-04-21T05:44:50.401Z,927.38
2017-04-21T05:45:18.613Z,927.4
2017-04-21T05:45:46.908Z,927.38
2017-04-21T05:46:15.153Z,927.38
2017-04-21T05:46:43.333Z,927.35
2017-04-21T05:47:11.458Z,927.38
2017-04-21T05:47:39.618Z,927.4
2017-04-21T05:48:07.827Z,927.4
2017-04-21T05:48:36.101Z,927.37
2017-04-21T05:49:04.189Z,927.35
2017-04-21T05:49:32.487Z,927.35
2017-04-21T05:50:00.644Z,927.37
2017-04-21T05:50:28.687Z,927.34
2017-04-21T05:50:57.019Z,927.34
2017-04-21T05:51:25.175Z,927.33
2017-04-21T05:51:53.306Z,927.31
2017-04-21T05:52:21.288Z,927.31
2017-04-21T05:52:49.630Z,927.32